sensor_id;sensor_type;location;lat;lon;timestamp;pressure;altitude;pressure_sealevel;temperature;humidity
64683;BME280;51107;47.652;19.016;2023-09-19T00:00:50;99334.00;;;22.11;69.54
64683;BME280;51107;47.652;19.016;2023-09-19T00:03:20;99337.72;;;22.10;69.23
64683;BME280;51107;47.652;19.016;2023-09-19T00:05:48;99337.81;;;22.15;69.26
64683;BME280;51107;47.652;19.016;2023-09-19T00:08:18;99330.31;;;22.12;69.47
64683;BME280;51107;47.652;19.016;2023-09-19T00:10:51;99322.19;;;22.01;70.18
64683;BME280;51107;47.652;19.016;2023-09-19T00:13:21;99326.22;;;22.04;69.79
64683;BME280;51107;47.652;19.016;2023-09-19T00:15:49;99336.91;;;22.09;69.82
64683;BME280;51107;47.652;19.016;2023-09-19T00:18:19;99335.53;;;22.06;70.04
64683;BME280;51107;47.652;19.016;2023-09-19T00:20:50;99333.81;;;22.12;69.91
64683;BME280;51107;47.652;19.016;2023-09-19T00:23:21;99331.34;;;22.11;70.52
64683;BME280;51107;47.652;19.016;2023-09-19T00:25:49;99332.31;;;22.04;72.79
64683;BME280;51107;47.652;19.016;2023-09-19T00:28:18;99334.75;;;21.94;74.04
64683;BME280;51107;47.652;19.016;2023-09-19T00:30:48;99322.31;;;21.95;74.56
64683;BME280;51107;47.652;19.016;2023-09-19T00:33:19;99327.91;;;21.81;77.63
64683;BME280;51107;47.652;19.016;2023-09-19T00:35:49;99325.31;;;21.69;79.12
64683;BME280;51107;47.652;19.016;2023-09-19T00:38:18;99321.28;;;21.67;81.12
64683;BME280;51107;47.652;19.016;2023-09-19T00:40:50;99327.03;;;21.52;80.29
64683;BME280;51107;47.652;19.016;2023-09-19T00:43:21;99328.28;;;21.49;80.10
64683;BME280;51107;47.652;19.016;2023-09-19T00:45:54;99329.91;;;21.50;80.47
64683;BME280;51107;47.652;19.016;2023-09-19T00:48:24;99324.97;;;21.54;78.21
64683;BME280;51107;47.652;19.016;2023-09-19T00:50:57;99332.47;;;21.57;78.69
64683;BME280;51107;47.652;19.016;2023-09-19T00:53:27;99329.66;;;21.64;77.15
64683;BME280;51107;47.652;19.016;2023-09-19T00:55:55;99335.31;;;21.67;76.25
64683;BME280;51107;47.652;19.016;2023-09-19T00:58:24;99324.09;;;21.77;75.50
64683;BME280;51107;47.652;19.016;2023-09-19T01:00:53;99316.88;;;21.73;76.32
64683;BME280;51107;47.652;19.016;2023-09-19T01:03:22;99328.03;;;21.75;75.67
64683;BME280;51107;47.652;19.016;2023-09-19T01:05:51;99323.06;;;21.78;75.34
64683;BME280;51107;47.652;19.016;2023-09-19T01:08:20;99313.84;;;21.81;75.00
64683;BME280;51107;47.652;19.016;2023-09-19T01:11:33;99326.53;;;21.79;74.86
64683;BME280;51107;47.652;19.016;2023-09-19T01:14:11;99321.81;;;21.81;75.23
64683;BME280;51107;47.652;19.016;2023-09-19T01:31:10;99315.87;;;21.91;76.02
64683;BME280;51107;47.652;19.016;2023-09-19T01:34:02;99318.66;;;21.84;76.42
64683;BME280;51107;47.652;19.016;2023-09-19T01:36:38;99311.75;;;21.83;77.57
64683;BME280;51107;47.652;19.016;2023-09-19T01:39:09;99312.38;;;21.73;78.29
64683;BME280;51107;47.652;19.016;2023-09-19T01:42:00;99313.06;;;21.68;78.61
64683;BME280;51107;47.652;19.016;2023-09-19T01:47:34;99327.50;;;21.61;80.54
64683;BME280;51107;47.652;19.016;2023-09-19T01:50:17;99313.91;;;21.57;80.68
64683;BME280;51107;47.652;19.016;2023-09-19T01:52:56;99314.00;;;21.50;82.12
64683;BME280;51107;47.652;19.016;2023-09-19T01:55:27;99312.03;;;21.46;83.55
64683;BME280;51107;47.652;19.016;2023-09-19T01:58:14;99316.13;;;21.36;83.79
64683;BME280;51107;47.652;19.016;2023-09-19T02:00:48;99318.06;;;21.29;84.61
64683;BME280;51107;47.652;19.016;2023-09-19T02:03:21;99322.31;;;21.18;84.65
64683;BME280;51107;47.652;19.016;2023-09-19T02:05:52;99320.38;;;21.14;86.26
64683;BME280;51107;47.652;19.016;2023-09-19T02:08:22;99322.47;;;21.12;87.20
64683;BME280;51107;47.652;19.016;2023-09-19T02:10:53;99317.59;;;21.09;86.31
64683;BME280;51107;47.652;19.016;2023-09-19T02:13:22;99314.28;;;21.01;86.68
64683;BME280;51107;47.652;19.016;2023-09-19T02:15:57;99305.06;;;20.92;88.03
64683;BME280;51107;47.652;19.016;2023-09-19T02:18:25;99315.87;;;20.91;88.57
64683;BME280;51107;47.652;19.016;2023-09-19T02:20:54;99316.72;;;20.91;89.71
64683;BME280;51107;47.652;19.016;2023-09-19T02:23:24;99315.87;;;20.91;90.18
64683;BME280;51107;47.652;19.016;2023-09-19T02:25:54;99315.22;;;20.95;88.72
64683;BME280;51107;47.652;19.016;2023-09-19T02:28:22;99321.88;;;20.86;89.34
64683;BME280;51107;47.652;19.016;2023-09-19T02:30:51;99318.31;;;20.80;90.94
64683;BME280;51107;47.652;19.016;2023-09-19T02:33:19;99322.22;;;20.78;90.21
64683;BME280;51107;47.652;19.016;2023-09-19T02:35:48;99326.59;;;20.72;90.16
64683;BME280;51107;47.652;19.016;2023-09-19T02:38:16;99324.34;;;20.57;91.33
64683;BME280;51107;47.652;19.016;2023-09-19T02:40:49;99330.19;;;20.59;91.04
64683;BME280;51107;47.652;19.016;2023-09-19T02:43:18;99325.72;;;20.60;91.05
64683;BME280;51107;47.652;19.016;2023-09-19T02:45:50;99332.19;;;20.64;89.98
64683;BME280;51107;47.652;19.016;2023-09-19T02:48:19;99328.59;;;20.58;90.79
64683;BME280;51107;47.652;19.016;2023-09-19T02:50:51;99318.44;;;20.55;91.44
64683;BME280;51107;47.652;19.016;2023-09-19T02:53:20;99320.91;;;20.57;90.20
64683;BME280;51107;47.652;19.016;2023-09-19T02:55:48;99306.50;;;20.52;90.54
64683;BME280;51107;47.652;19.016;2023-09-19T02:58:16;99305.69;;;20.52;91.06
64683;BME280;51107;47.652;19.016;2023-09-19T03:00:47;99299.94;;;20.55;90.17
64683;BME280;51107;47.652;19.016;2023-09-19T03:03:18;99293.03;;;20.54;91.11
64683;BME280;51107;47.652;19.016;2023-09-19T03:05:47;99289.94;;;20.57;90.70
64683;BME280;51107;47.652;19.016;2023-09-19T03:08:18;99296.50;;;20.54;90.61
64683;BME280;51107;47.652;19.016;2023-09-19T03:10:47;99301.31;;;20.46;91.67
64683;BME280;51107;47.652;19.016;2023-09-19T03:13:16;99295.75;;;20.35;92.32
64683;BME280;51107;47.652;19.016;2023-09-19T03:15:45;99303.12;;;20.33;92.62
64683;BME280;51107;47.652;19.016;2023-09-19T03:18:16;99304.16;;;20.32;92.95
64683;BME280;51107;47.652;19.016;2023-09-19T03:20:52;99302.84;;;20.23;94.19
64683;BME280;51107;47.652;19.016;2023-09-19T03:23:23;99305.50;;;20.23;94.62
64683;BME280;51107;47.652;19.016;2023-09-19T03:25:52;99307.13;;;20.24;93.79
64683;BME280;51107;47.652;19.016;2023-09-19T03:28:24;99308.81;;;20.18;94.55
64683;BME280;51107;47.652;19.016;2023-09-19T03:31:05;99312.34;;;20.12;95.46
64683;BME280;51107;47.652;19.016;2023-09-19T03:33:34;99314.13;;;20.18;94.44
64683;BME280;51107;47.652;19.016;2023-09-19T03:36:03;99314.56;;;20.15;94.87
64683;BME280;51107;47.652;19.016;2023-09-19T03:38:35;99325.69;;;20.06;97.03
64683;BME280;51107;47.652;19.016;2023-09-19T03:41:04;99322.81;;;20.07;96.46
64683;BME280;51107;47.652;19.016;2023-09-19T03:43:33;99318.47;;;20.13;97.03
64683;BME280;51107;47.652;19.016;2023-09-19T03:46:03;99311.94;;;20.15;96.37
64683;BME280;51107;47.652;19.016;2023-09-19T03:48:33;99321.13;;;20.13;96.54
64683;BME280;51107;47.652;19.016;2023-09-19T03:51:02;99321.25;;;20.18;96.21
64683;BME280;51107;47.652;19.016;2023-09-19T03:53:31;99320.09;;;20.14;97.61
64683;BME280;51107;47.652;19.016;2023-09-19T03:55:59;99323.44;;;20.21;95.98
64683;BME280;51107;47.652;19.016;2023-09-19T03:58:28;99329.06;;;20.25;95.06
64683;BME280;51107;47.652;19.016;2023-09-19T04:00:57;99316.06;;;20.23;96.13
64683;BME280;51107;47.652;19.016;2023-09-19T04:03:28;99327.81;;;20.27;95.62
64683;BME280;51107;47.652;19.016;2023-09-19T04:06:04;99335.53;;;20.29;95.35
64683;BME280;51107;47.652;19.016;2023-09-19T04:08:32;99340.09;;;20.22;94.83
64683;BME280;51107;47.652;19.016;2023-09-19T04:11:00;99333.00;;;20.22;95.01
64683;BME280;51107;47.652;19.016;2023-09-19T04:13:29;99329.75;;;20.20;95.17
64683;BME280;51107;47.652;19.016;2023-09-19T04:15:58;99337.81;;;20.25;93.34
64683;BME280;51107;47.652;19.016;2023-09-19T04:18:26;99340.81;;;20.29;91.38
64683;BME280;51107;47.652;19.016;2023-09-19T04:20:54;99345.59;;;20.39;88.05
64683;BME280;51107;47.652;19.016;2023-09-19T04:23:24;99343.38;;;20.35;87.40
64683;BME280;51107;47.652;19.016;2023-09-19T04:25:52;99343.41;;;20.47;85.32
64683;BME280;51107;47.652;19.016;2023-09-19T04:28:21;99338.25;;;20.52;84.65
64683;BME280;51107;47.652;19.016;2023-09-19T04:30:50;99328.78;;;20.45;85.02
64683;BME280;51107;47.652;19.016;2023-09-19T04:33:18;99339.47;;;20.38;84.98
64683;BME280;51107;47.652;19.016;2023-09-19T04:35:49;99332.47;;;20.44;84.02
64683;BME280;51107;47.652;19.016;2023-09-19T04:38:20;99341.78;;;20.46;83.58
64683;BME280;51107;47.652;19.016;2023-09-19T04:40:49;99351.91;;;20.37;84.13
64683;BME280;51107;47.652;19.016;2023-09-19T04:43:18;99355.56;;;20.36;85.03
64683;BME280;51107;47.652;19.016;2023-09-19T04:45:46;99364.97;;;20.32;84.99
64683;BME280;51107;47.652;19.016;2023-09-19T04:48:14;99369.91;;;20.29;85.56
64683;BME280;51107;47.652;19.016;2023-09-19T04:50:44;99361.66;;;20.37;84.65
64683;BME280;51107;47.652;19.016;2023-09-19T04:53:12;99365.12;;;20.37;84.71
64683;BME280;51107;47.652;19.016;2023-09-19T04:55:40;99366.84;;;20.44;83.65
64683;BME280;51107;47.652;19.016;2023-09-19T04:58:09;99366.25;;;20.30;84.04
64683;BME280;51107;47.652;19.016;2023-09-19T05:00:37;99367.06;;;20.30;84.36
64683;BME280;51107;47.652;19.016;2023-09-19T05:03:06;99373.94;;;20.31;84.22
64683;BME280;51107;47.652;19.016;2023-09-19T05:05:34;99376.28;;;20.40;83.51
64683;BME280;51107;47.652;19.016;2023-09-19T05:08:03;99382.34;;;20.28;83.77
64683;BME280;51107;47.652;19.016;2023-09-19T05:10:34;99378.66;;;20.29;84.21
64683;BME280;51107;47.652;19.016;2023-09-19T05:13:06;99379.97;;;20.39;83.61
64683;BME280;51107;47.652;19.016;2023-09-19T05:15:35;99388.69;;;20.09;86.01
64683;BME280;51107;47.652;19.016;2023-09-19T05:18:05;99397.72;;;20.01;86.90
64683;BME280;51107;47.652;19.016;2023-09-19T05:20:34;99409.13;;;20.01;86.63
64683;BME280;51107;47.652;19.016;2023-09-19T05:23:05;99418.81;;;19.89;88.11
64683;BME280;51107;47.652;19.016;2023-09-19T05:25:40;99420.78;;;19.75;88.92
64683;BME280;51107;47.652;19.016;2023-09-19T05:28:10;99417.84;;;19.83;87.73
64683;BME280;51107;47.652;19.016;2023-09-19T05:30:42;99433.91;;;19.38;90.32
64683;BME280;51107;47.652;19.016;2023-09-19T05:33:15;99420.56;;;19.51;89.46
64683;BME280;51107;47.652;19.016;2023-09-19T05:35:48;99420.16;;;19.55;89.31
64683;BME280;51107;47.652;19.016;2023-09-19T05:38:16;99431.00;;;19.21;91.89
64683;BME280;51107;47.652;19.016;2023-09-19T05:40:47;99436.09;;;19.16;91.89
64683;BME280;51107;47.652;19.016;2023-09-19T05:43:15;99437.41;;;19.07;92.28
64683;BME280;51107;47.652;19.016;2023-09-19T05:45:44;99432.62;;;18.97;93.41
64683;BME280;51107;47.652;19.016;2023-09-19T05:48:14;99432.06;;;18.81;93.47
64683;BME280;51107;47.652;19.016;2023-09-19T05:50:43;99424.13;;;18.88;93.05
64683;BME280;51107;47.652;19.016;2023-09-19T05:53:16;99430.41;;;18.87;93.19
64683;BME280;51107;47.652;19.016;2023-09-19T05:55:46;99420.78;;;18.67;95.23
64683;BME280;51107;47.652;19.016;2023-09-19T05:58:15;99418.97;;;18.68;95.71
64683;BME280;51107;47.652;19.016;2023-09-19T06:00:45;99422.69;;;18.85;94.70
64683;BME280;51107;47.652;19.016;2023-09-19T06:03:15;99416.94;;;18.63;97.52
64683;BME280;51107;47.652;19.016;2023-09-19T06:05:45;99413.22;;;18.78;95.82
64683;BME280;51107;47.652;19.016;2023-09-19T06:08:18;99412.19;;;18.79;96.03
64683;BME280;51107;47.652;19.016;2023-09-19T06:10:46;99413.22;;;18.78;95.07
64683;BME280;51107;47.652;19.016;2023-09-19T06:13:15;99418.50;;;18.78;96.04
64683;BME280;51107;47.652;19.016;2023-09-19T06:15:44;99414.66;;;18.74;95.90
64683;BME280;51107;47.652;19.016;2023-09-19T06:18:12;99424.97;;;18.82;94.61
64683;BME280;51107;47.652;19.016;2023-09-19T06:20:47;99425.59;;;18.77;95.67
64683;BME280;51107;47.652;19.016;2023-09-19T06:23:15;99422.75;;;18.79;96.22
64683;BME280;51107;47.652;19.016;2023-09-19T06:25:43;99433.50;;;18.77;98.08
64683;BME280;51107;47.652;19.016;2023-09-19T06:28:12;99438.38;;;18.42;100.00
64683;BME280;51107;47.652;19.016;2023-09-19T06:30:41;99441.38;;;18.45;100.00
64683;BME280;51107;47.652;19.016;2023-09-19T06:33:09;99440.16;;;18.48;100.00
64683;BME280;51107;47.652;19.016;2023-09-19T06:35:40;99443.16;;;18.13;100.00
64683;BME280;51107;47.652;19.016;2023-09-19T06:38:10;99440.56;;;17.99;100.00
64683;BME280;51107;47.652;19.016;2023-09-19T06:40:41;99451.87;;;18.07;100.00
64683;BME280;51107;47.652;19.016;2023-09-19T06:43:13;99435.06;;;18.01;100.00
64683;BME280;51107;47.652;19.016;2023-09-19T06:45:42;99444.63;;;17.95;100.00
64683;BME280;51107;47.652;19.016;2023-09-19T06:48:10;99439.34;;;17.89;100.00
64683;BME280;51107;47.652;19.016;2023-09-19T06:50:40;99442.19;;;17.94;100.00
64683;BME280;51107;47.652;19.016;2023-09-19T06:53:09;99441.81;;;17.77;100.00
64683;BME280;51107;47.652;19.016;2023-09-19T06:55:38;99454.13;;;17.90;100.00
64683;BME280;51107;47.652;19.016;2023-09-19T06:58:06;99453.94;;;17.85;100.00
64683;BME280;51107;47.652;19.016;2023-09-19T07:00:35;99467.13;;;17.91;100.00
64683;BME280;51107;47.652;19.016;2023-09-19T07:03:08;99466.13;;;17.92;100.00
64683;BME280;51107;47.652;19.016;2023-09-19T07:05:40;99460.19;;;17.90;100.00
64683;BME280;51107;47.652;19.016;2023-09-19T07:08:09;99471.78;;;17.96;100.00
64683;BME280;51107;47.652;19.016;2023-09-19T07:10:42;99468.53;;;17.87;100.00
64683;BME280;51107;47.652;19.016;2023-09-19T07:13:17;99458.41;;;17.84;100.00
64683;BME280;51107;47.652;19.016;2023-09-19T07:15:45;99467.53;;;17.81;100.00
64683;BME280;51107;47.652;19.016;2023-09-19T07:18:18;99466.09;;;17.86;100.00
64683;BME280;51107;47.652;19.016;2023-09-19T07:20:47;99468.09;;;17.90;100.00
64683;BME280;51107;47.652;19.016;2023-09-19T07:23:19;99471.41;;;17.92;100.00
64683;BME280;51107;47.652;19.016;2023-09-19T07:25:49;99482.53;;;17.94;100.00
64683;BME280;51107;47.652;19.016;2023-09-19T07:28:18;99487.78;;;17.88;100.00
64683;BME280;51107;47.652;19.016;2023-09-19T07:30:46;99493.47;;;17.91;100.00
64683;BME280;51107;47.652;19.016;2023-09-19T07:33:14;99497.75;;;17.92;100.00
64683;BME280;51107;47.652;19.016;2023-09-19T07:35:45;99496.13;;;17.91;100.00
64683;BME280;51107;47.652;19.016;2023-09-19T07:38:14;99505.03;;;17.97;100.00
64683;BME280;51107;47.652;19.016;2023-09-19T07:40:43;99509.88;;;18.07;100.00
64683;BME280;51107;47.652;19.016;2023-09-19T07:43:12;99516.19;;;17.99;100.00
64683;BME280;51107;47.652;19.016;2023-09-19T07:45:41;99507.03;;;18.02;100.00
64683;BME280;51107;47.652;19.016;2023-09-19T07:48:09;99518.19;;;18.10;100.00
64683;BME280;51107;47.652;19.016;2023-09-19T07:50:43;99512.06;;;18.23;100.00
64683;BME280;51107;47.652;19.016;2023-09-19T07:53:12;99515.91;;;18.21;100.00
64683;BME280;51107;47.652;19.016;2023-09-19T07:55:41;99506.81;;;18.16;100.00
64683;BME280;51107;47.652;19.016;2023-09-19T07:58:10;99507.44;;;18.12;100.00
64683;BME280;51107;47.652;19.016;2023-09-19T08:00:38;99522.22;;;18.20;100.00
64683;BME280;51107;47.652;19.016;2023-09-19T08:03:07;99523.47;;;18.04;100.00
64683;BME280;51107;47.652;19.016;2023-09-19T08:05:44;99531.72;;;18.21;100.00
64683;BME280;51107;47.652;19.016;2023-09-19T08:08:14;99539.03;;;18.25;100.00
64683;BME280;51107;47.652;19.016;2023-09-19T08:10:43;99544.09;;;18.27;100.00
64683;BME280;51107;47.652;19.016;2023-09-19T08:13:14;99542.47;;;18.26;100.00
64683;BME280;51107;47.652;19.016;2023-09-19T08:15:45;99537.38;;;18.38;100.00
64683;BME280;51107;47.652;19.016;2023-09-19T08:18:15;99534.53;;;18.39;100.00
64683;BME280;51107;47.652;19.016;2023-09-19T08:20:49;99547.75;;;18.32;100.00
64683;BME280;51107;47.652;19.016;2023-09-19T08:23:19;99549.94;;;18.49;100.00
64683;BME280;51107;47.652;19.016;2023-09-19T08:25:48;99560.94;;;18.32;100.00
64683;BME280;51107;47.652;19.016;2023-09-19T08:28:16;99555.25;;;18.22;100.00
64683;BME280;51107;47.652;19.016;2023-09-19T08:30:50;99557.50;;;18.32;100.00
64683;BME280;51107;47.652;19.016;2023-09-19T08:33:19;99564.78;;;18.23;100.00
64683;BME280;51107;47.652;19.016;2023-09-19T08:35:47;99554.66;;;18.13;100.00
64683;BME280;51107;47.652;19.016;2023-09-19T08:38:16;99578.59;;;18.19;100.00
64683;BME280;51107;47.652;19.016;2023-09-19T08:40:44;99575.38;;;18.03;100.00
64683;BME280;51107;47.652;19.016;2023-09-19T08:43:13;99576.97;;;18.24;100.00
64683;BME280;51107;47.652;19.016;2023-09-19T08:45:41;99578.38;;;18.33;100.00
64683;BME280;51107;47.652;19.016;2023-09-19T08:48:17;99591.56;;;18.33;100.00
64683;BME280;51107;47.652;19.016;2023-09-19T08:55:56;99615.88;;;18.29;100.00
64683;BME280;51107;47.652;19.016;2023-09-19T08:58:27;99616.31;;;18.32;100.00
64683;BME280;51107;47.652;19.016;2023-09-19T09:00:58;99617.72;;;18.15;100.00
64683;BME280;51107;47.652;19.016;2023-09-19T09:03:32;99623.78;;;18.29;100.00
64683;BME280;51107;47.652;19.016;2023-09-19T09:06:01;99621.38;;;18.21;100.00
64683;BME280;51107;47.652;19.016;2023-09-19T09:08:31;99622.59;;;18.25;100.00
64683;BME280;51107;47.652;19.016;2023-09-19T09:10:59;99614.28;;;18.28;100.00
64683;BME280;51107;47.652;19.016;2023-09-19T09:13:28;99610.81;;;18.21;100.00
64683;BME280;51107;47.652;19.016;2023-09-19T09:15:57;99610.81;;;18.27;100.00
64683;BME280;51107;47.652;19.016;2023-09-19T09:18:28;99615.88;;;18.42;100.00
64683;BME280;51107;47.652;19.016;2023-09-19T09:20:58;99620.34;;;18.42;100.00
64683;BME280;51107;47.652;19.016;2023-09-19T09:23:27;99603.06;;;18.53;100.00
64683;BME280;51107;47.652;19.016;2023-09-19T09:25:58;99617.31;;;18.38;100.00
64683;BME280;51107;47.652;19.016;2023-09-19T09:28:35;99607.94;;;18.49;100.00
64683;BME280;51107;47.652;19.016;2023-09-19T09:31:24;99614.03;;;18.49;100.00
64683;BME280;51107;47.652;19.016;2023-09-19T09:33:54;99620.75;;;18.39;100.00
64683;BME280;51107;47.652;19.016;2023-09-19T09:36:37;99617.69;;;18.48;100.00
64683;BME280;51107;47.652;19.016;2023-09-19T09:39:06;99600.41;;;18.53;100.00
64683;BME280;51107;47.652;19.016;2023-09-19T09:41:47;99597.78;;;18.53;100.00
64683;BME280;51107;47.652;19.016;2023-09-19T09:44:17;99600.25;;;18.54;100.00
64683;BME280;51107;47.652;19.016;2023-09-19T09:46:47;99598.00;;;18.51;100.00
64683;BME280;51107;47.652;19.016;2023-09-19T09:49:24;99607.53;;;18.59;100.00
64683;BME280;51107;47.652;19.016;2023-09-19T09:52:04;99615.81;;;18.69;100.00
64683;BME280;51107;47.652;19.016;2023-09-19T09:54:58;99618.63;;;18.81;100.00
64683;BME280;51107;47.652;19.016;2023-09-19T09:57:26;99632.03;;;18.93;100.00
64683;BME280;51107;47.652;19.016;2023-09-19T09:59:57;99628.75;;;18.91;100.00
64683;BME280;51107;47.652;19.016;2023-09-19T10:02:46;99620.81;;;18.97;100.00
64683;BME280;51107;47.652;19.016;2023-09-19T10:05:17;99615.66;;;19.16;100.00
64683;BME280;51107;47.652;19.016;2023-09-19T10:07:50;99628.94;;;19.03;100.00
64683;BME280;51107;47.652;19.016;2023-09-19T10:13:08;99620.78;;;19.11;100.00
64683;BME280;51107;47.652;19.016;2023-09-19T10:15:42;99624.62;;;19.08;100.00
64683;BME280;51107;47.652;19.016;2023-09-19T10:18:24;99623.16;;;19.19;100.00
64683;BME280;51107;47.652;19.016;2023-09-19T10:20:53;99617.50;;;19.15;100.00
64683;BME280;51107;47.652;19.016;2023-09-19T10:23:23;99611.53;;;19.27;100.00
64683;BME280;51107;47.652;19.016;2023-09-19T10:25:54;99603.13;;;19.43;100.00
64683;BME280;51107;47.652;19.016;2023-09-19T10:28:23;99601.81;;;19.59;100.00
64683;BME280;51107;47.652;19.016;2023-09-19T10:30:56;99609.69;;;19.66;100.00
64683;BME280;51107;47.652;19.016;2023-09-19T10:33:26;99614.06;;;19.79;100.00
64683;BME280;51107;47.652;19.016;2023-09-19T10:35:57;99618.53;;;19.85;100.00
64683;BME280;51107;47.652;19.016;2023-09-19T10:38:28;99622.34;;;19.89;100.00
64683;BME280;51107;47.652;19.016;2023-09-19T10:40:57;99626.94;;;20.00;100.00
64683;BME280;51107;47.652;19.016;2023-09-19T10:43:31;99624.88;;;20.02;100.00
64683;BME280;51107;47.652;19.016;2023-09-19T10:46:07;99627.69;;;20.08;100.00
64683;BME280;51107;47.652;19.016;2023-09-19T10:48:39;99637.41;;;20.14;98.17
64683;BME280;51107;47.652;19.016;2023-09-19T10:51:22;99638.59;;;20.18;100.00
64683;BME280;51107;47.652;19.016;2023-09-19T10:53:59;99652.66;;;20.12;100.00
64683;BME280;51107;47.652;19.016;2023-09-19T10:56:40;99644.53;;;20.13;100.00
64683;BME280;51107;47.652;19.016;2023-09-19T10:59:12;99641.34;;;20.05;100.00
64683;BME280;51107;47.652;19.016;2023-09-19T11:04:33;99644.63;;;20.00;100.00
64683;BME280;51107;47.652;19.016;2023-09-19T11:07:06;99639.78;;;19.97;100.00
64683;BME280;51107;47.652;19.016;2023-09-19T11:09:52;99652.56;;;20.00;99.27
64683;BME280;51107;47.652;19.016;2023-09-19T11:14:59;99657.66;;;20.01;97.27
64683;BME280;51107;47.652;19.016;2023-09-19T11:17:38;99670.09;;;19.94;96.75
64683;BME280;51107;47.652;19.016;2023-09-19T11:28:27;99676.59;;;19.92;95.77
64683;BME280;51107;47.652;19.016;2023-09-19T11:30:56;99672.38;;;20.16;98.80
64683;BME280;51107;47.652;19.016;2023-09-19T11:33:28;99671.16;;;20.37;98.49
64683;BME280;51107;47.652;19.016;2023-09-19T11:36:10;99665.31;;;20.53;96.03
64683;BME280;51107;47.652;19.016;2023-09-19T11:49:30;99669.38;;;21.30;90.21
64683;BME280;51107;47.652;19.016;2023-09-19T11:52:01;99670.59;;;21.46;92.63
64683;BME280;51107;47.652;19.016;2023-09-19T11:54:33;99675.31;;;21.63;85.84
64683;BME280;51107;47.652;19.016;2023-09-19T11:57:02;99671.66;;;21.76;84.57
64683;BME280;51107;47.652;19.016;2023-09-19T11:59:31;99663.00;;;21.68;82.69
64683;BME280;51107;47.652;19.016;2023-09-19T12:02:06;99660.94;;;21.82;83.57
64683;BME280;51107;47.652;19.016;2023-09-19T12:04:38;99665.47;;;21.94;84.97
64683;BME280;51107;47.652;19.016;2023-09-19T12:07:09;99659.34;;;22.05;81.43
64683;BME280;51107;47.652;19.016;2023-09-19T12:09:47;99654.53;;;22.14;77.45
64683;BME280;51107;47.652;19.016;2023-09-19T12:12:28;99656.28;;;22.08;80.76
64683;BME280;51107;47.652;19.016;2023-09-19T12:14:58;99658.22;;;22.13;78.61
64683;BME280;51107;47.652;19.016;2023-09-19T12:17:37;99663.88;;;22.04;77.29
64683;BME280;51107;47.652;19.016;2023-09-19T12:20:07;99671.34;;;22.08;75.55
64683;BME280;51107;47.652;19.016;2023-09-19T12:22:43;99680.56;;;21.93;76.52
64683;BME280;51107;47.652;19.016;2023-09-19T12:25:15;99686.84;;;21.68;76.48
64683;BME280;51107;47.652;19.016;2023-09-19T12:27:47;99677.94;;;21.32;78.46
64683;BME280;51107;47.652;19.016;2023-09-19T12:30:18;99673.78;;;21.36;78.88
64683;BME280;51107;47.652;19.016;2023-09-19T12:32:54;99666.09;;;21.47;78.14
64683;BME280;51107;47.652;19.016;2023-09-19T12:35:28;99670.94;;;21.50;77.99
64683;BME280;51107;47.652;19.016;2023-09-19T12:37:58;99668.38;;;21.62;78.66
64683;BME280;51107;47.652;19.016;2023-09-19T12:40:27;99673.94;;;21.72;78.47
64683;BME280;51107;47.652;19.016;2023-09-19T12:42:58;99665.69;;;21.92;77.17
64683;BME280;51107;47.652;19.016;2023-09-19T12:45:28;99675.38;;;21.98;78.93
64683;BME280;51107;47.652;19.016;2023-09-19T12:48:25;99689.22;;;22.00;77.56
64683;BME280;51107;47.652;19.016;2023-09-19T12:51:05;99684.75;;;22.13;75.87
64683;BME280;51107;47.652;19.016;2023-09-19T12:53:37;99686.00;;;22.10;76.86
64683;BME280;51107;47.652;19.016;2023-09-19T12:56:15;99687.63;;;22.11;78.55
64683;BME280;51107;47.652;19.016;2023-09-19T12:58:58;99686.38;;;22.14;79.25
64683;BME280;51107;47.652;19.016;2023-09-19T13:01:29;99686.84;;;22.22;76.74
64683;BME280;51107;47.652;19.016;2023-09-19T13:04:17;99692.50;;;22.26;77.08
64683;BME280;51107;47.652;19.016;2023-09-19T13:06:50;99681.06;;;22.14;77.48
64683;BME280;51107;47.652;19.016;2023-09-19T13:09:22;99679.47;;;22.25;76.95
64683;BME280;51107;47.652;19.016;2023-09-19T13:11:50;99684.22;;;22.34;78.65
64683;BME280;51107;47.652;19.016;2023-09-19T13:17:00;99684.44;;;22.68;76.38
64683;BME280;51107;47.652;19.016;2023-09-19T13:22:05;99685.59;;;22.49;74.26
64683;BME280;51107;47.652;19.016;2023-09-19T13:24:36;99685.97;;;22.52;75.92
64683;BME280;51107;47.652;19.016;2023-09-19T13:27:08;99681.44;;;22.65;74.52
64683;BME280;51107;47.652;19.016;2023-09-19T13:29:36;99685.50;;;22.67;74.99
64683;BME280;51107;47.652;19.016;2023-09-19T13:32:05;99696.34;;;22.54;72.63
64683;BME280;51107;47.652;19.016;2023-09-19T13:34:34;99692.19;;;22.46;72.79
64683;BME280;51107;47.652;19.016;2023-09-19T13:37:02;99688.50;;;22.47;72.29
64683;BME280;51107;47.652;19.016;2023-09-19T13:39:31;99684.56;;;22.38;74.49
64683;BME280;51107;47.652;19.016;2023-09-19T13:41:59;99684.91;;;22.53;73.45
64683;BME280;51107;47.652;19.016;2023-09-19T13:44:27;99689.66;;;22.63;74.08
64683;BME280;51107;47.652;19.016;2023-09-19T13:46:58;99692.06;;;22.65;70.84
64683;BME280;51107;47.652;19.016;2023-09-19T13:49:26;99701.31;;;22.62;71.12
64683;BME280;51107;47.652;19.016;2023-09-19T13:51:54;99705.34;;;22.53;71.71
64683;BME280;51107;47.652;19.016;2023-09-19T13:54:23;99706.59;;;22.62;72.13
64683;BME280;51107;47.652;19.016;2023-09-19T13:56:51;99707.28;;;22.69;70.47
64683;BME280;51107;47.652;19.016;2023-09-19T13:59:20;99714.34;;;22.64;70.12
64683;BME280;51107;47.652;19.016;2023-09-19T14:01:49;99716.97;;;22.52;72.22
64683;BME280;51107;47.652;19.016;2023-09-19T14:04:21;99721.13;;;22.48;71.61